createdAt,value
2023-05-13T00:01:54.932Z,30.60
2023-05-13T00:04:21.767Z,31.58
2023-05-13T00:06:48.527Z,30.70
2023-05-13T00:09:16.168Z,31.17
2023-05-13T00:11:43.148Z,32.78
2023-05-13T00:14:10.851Z,30.42
2023-05-13T00:16:37.646Z,30.15
2023-05-13T00:19:04.751Z,31.55
2023-05-13T00:21:32.190Z,45.67
2023-05-13T00:23:58.960Z,29.80
2023-05-13T00:26:26.456Z,30.98
2023-05-13T00:28:53.335Z,30.25
2023-05-13T00:31:20.123Z,42.47
2023-05-13T00:33:46.896Z,30.05
2023-05-13T00:36:14.620Z,30.33
2023-05-13T00:38:43.980Z,30.05
2023-05-13T00:41:11.771Z,30.55
2023-05-13T00:43:38.624Z,29.92
2023-05-13T00:46:05.428Z,30.63
2023-05-13T00:48:33.496Z,29.98
2023-05-13T00:51:00.366Z,30.58
2023-05-13T00:53:27.255Z,29.98
2023-05-13T00:55:54.505Z,29.92
2023-05-13T00:58:21.475Z,31.60
2023-05-13T01:01:14.450Z,29.88
2023-05-13T01:04:31.237Z,28.92
2023-05-13T01:07:35.061Z,30.40
2023-05-13T01:10:16.075Z,30.30
2023-05-13T01:12:44.877Z,29.45
2023-05-13T01:15:15.502Z,28.77
2023-05-13T01:18:13.607Z,32.08
2023-05-13T01:20:42.641Z,29.33
2023-05-13T01:23:11.611Z,30.15
2023-05-13T01:25:40.389Z,29.90
2023-05-13T01:28:08.509Z,30.42
2023-05-13T01:30:36.882Z,33.30
2023-05-13T01:33:05.360Z,32.05
2023-05-13T01:35:32.522Z,32.63
2023-05-13T01:38:00.747Z,34.60
2023-05-13T01:40:32.944Z,32.97
2023-05-13T01:43:05.389Z,31.35
2023-05-13T01:45:33.428Z,31.00
2023-05-13T01:48:01.323Z,28.73
2023-05-13T01:50:38.882Z,32.08
2023-05-13T01:53:06.251Z,30.00
2023-05-13T01:55:33.017Z,30.98
2023-05-13T01:58:01.583Z,27.48
2023-05-13T02:05:00.048Z,32.15
2023-05-13T02:07:26.912Z,33.70
2023-05-13T02:09:59.818Z,29.30
2023-05-13T02:12:27.290Z,35.85
2023-05-13T02:14:54.899Z,29.45
2023-05-13T02:17:22.538Z,31.20
2023-05-13T02:19:49.571Z,30.30
2023-05-13T02:22:16.557Z,32.97
2023-05-13T02:24:43.454Z,28.30
2023-05-13T02:27:12.662Z,30.67
2023-05-13T02:29:39.654Z,29.55
2023-05-13T02:32:07.048Z,30.50
2023-05-13T02:34:34.131Z,28.83
2023-05-13T02:37:01.174Z,30.77
2023-05-13T02:39:28.036Z,29.70
2023-05-13T02:41:57.927Z,29.00
2023-05-13T02:44:27.803Z,28.15
2023-05-13T02:46:54.747Z,30.88
2023-05-13T02:49:21.658Z,28.98
2023-05-13T02:51:48.671Z,30.83
2023-05-13T02:54:17.562Z,32.30
2023-05-13T02:56:44.312Z,28.73
2023-05-13T02:59:11.657Z,29.98
2023-05-13T03:01:38.654Z,31.60
2023-05-13T03:04:05.597Z,32.38
2023-05-13T03:06:32.689Z,30.10
2023-05-13T03:08:59.571Z,29.85
2023-05-13T03:11:26.866Z,32.40
2023-05-13T03:13:53.698Z,30.45
2023-05-13T03:16:21.604Z,32.45
2023-05-13T03:18:48.412Z,29.83
2023-05-13T03:21:16.096Z,32.95
2023-05-13T03:23:43.205Z,30.08
2023-05-13T03:26:09.993Z,30.65
2023-05-13T03:28:36.819Z,32.08
2023-05-13T03:31:04.517Z,30.08
2023-05-13T03:33:35.771Z,31.75
2023-05-13T03:36:02.610Z,31.77
2023-05-13T03:38:31.939Z,32.75
2023-05-13T03:40:59.101Z,31.48
2023-05-13T03:43:26.174Z,30.65
2023-05-13T03:45:58.189Z,29.80
2023-05-13T03:48:25.963Z,31.23
2023-05-13T03:50:56.637Z,30.17
2023-05-13T03:53:24.126Z,31.70
2023-05-13T03:55:54.269Z,29.58
2023-05-13T03:58:22.705Z,30.10
2023-05-13T04:00:50.008Z,31.85
2023-05-13T04:03:17.687Z,32.70
2023-05-13T04:05:48.731Z,29.88
2023-05-13T04:08:15.892Z,31.95
2023-05-13T04:10:43.380Z,30.33
2023-05-13T04:13:10.236Z,30.05
2023-05-13T04:15:37.117Z,31.52
2023-05-13T04:18:08.553Z,31.60
2023-05-13T04:20:39.197Z,30.38
2023-05-13T04:23:06.355Z,30.45
2023-05-13T04:25:34.720Z,30.80
2023-05-13T04:28:03.047Z,28.92
2023-05-13T04:30:40.149Z,32.60
2023-05-13T04:33:07.565Z,31.83
2023-05-13T04:35:35.935Z,33.28
2023-05-13T04:38:05.260Z,33.97
2023-05-13T04:40:32.306Z,31.35
2023-05-13T04:43:04.926Z,30.45
2023-05-13T04:45:37.052Z,32.78
2023-05-13T04:48:06.786Z,32.58
2023-05-13T04:50:33.646Z,32.28
2023-05-13T04:53:01.123Z,32.53
2023-05-13T04:55:28.988Z,34.00
2023-05-13T04:57:56.679Z,31.42
2023-05-13T05:00:24.676Z,33.33
2023-05-13T05:02:52.471Z,34.83
2023-05-13T05:05:20.021Z,33.83
2023-05-13T05:07:47.072Z,31.52
2023-05-13T05:10:15.467Z,33.20
2023-05-13T05:12:47.411Z,30.00
2023-05-13T05:15:16.914Z,31.27
2023-05-13T05:17:46.922Z,30.73
2023-05-13T05:20:14.008Z,33.90
2023-05-13T05:22:42.148Z,31.40
2023-05-13T05:25:11.692Z,33.08
2023-05-13T05:27:38.901Z,31.35
2023-05-13T05:30:07.006Z,32.50
2023-05-13T05:32:35.701Z,31.23
2023-05-13T05:35:04.289Z,30.20
2023-05-13T05:37:32.756Z,32.95
2023-05-13T05:39:59.791Z,32.33
2023-05-13T05:42:27.504Z,35.78
2023-05-13T05:44:54.283Z,31.73
2023-05-13T05:47:21.028Z,31.00
2023-05-13T05:49:47.945Z,33.75
2023-05-13T05:52:15.387Z,34.42
2023-05-13T05:54:42.161Z,29.50
2023-05-13T05:57:08.966Z,32.40
2023-05-13T05:59:35.723Z,29.17
2023-05-13T06:02:02.554Z,28.70
2023-05-13T06:04:29.387Z,30.88
2023-05-13T06:06:56.188Z,29.65
2023-05-13T06:09:23.064Z,29.08
2023-05-13T06:11:51.240Z,30.67
2023-05-13T06:14:18.097Z,31.48
2023-05-13T06:16:44.880Z,28.15
2023-05-13T06:19:11.849Z,29.05
2023-05-13T06:21:38.667Z,30.88
2023-05-13T06:24:05.908Z,30.70
2023-05-13T06:26:35.052Z,29.73
2023-05-13T06:29:02.050Z,28.40
2023-05-13T06:31:28.958Z,31.83
2023-05-13T06:33:55.832Z,31.15
2023-05-13T06:36:24.518Z,29.25
2023-05-13T06:38:51.597Z,32.80
2023-05-13T06:41:18.324Z,30.13
2023-05-13T06:43:46.139Z,31.08
2023-05-13T06:46:22.970Z,29.85
2023-05-13T06:48:52.309Z,30.58
2023-05-13T06:51:19.277Z,29.92
2023-05-13T06:53:46.359Z,30.92
2023-05-13T06:56:13.178Z,29.52
2023-05-13T06:58:39.943Z,30.70
2023-05-13T07:01:06.757Z,28.38
2023-05-13T07:03:33.628Z,27.83
2023-05-13T07:06:00.451Z,32.28
2023-05-13T07:08:27.572Z,30.88
2023-05-13T07:10:54.332Z,28.55
2023-05-13T07:13:21.236Z,28.60
2023-05-13T07:15:48.475Z,28.88
2023-05-13T07:18:15.372Z,27.08
2023-05-13T07:20:42.145Z,29.40
2023-05-13T07:23:08.936Z,26.13
2023-05-13T07:25:35.754Z,27.42
2023-05-13T07:28:03.029Z,23.02
2023-05-13T07:30:29.899Z,25.15
2023-05-13T07:32:56.854Z,27.75
2023-05-13T07:35:23.776Z,25.73
2023-05-13T07:37:50.785Z,23.33
2023-05-13T07:40:17.997Z,26.73
2023-05-13T07:42:44.747Z,25.42
2023-05-13T07:45:11.639Z,28.38
2023-05-13T07:47:38.545Z,27.45
2023-05-13T07:50:06.436Z,29.00
2023-05-13T07:52:33.232Z,25.13
2023-05-13T07:54:59.960Z,23.48
2023-05-13T07:57:26.712Z,27.90
2023-05-13T07:59:54.209Z,25.23
2023-05-13T08:02:21.522Z,27.35
2023-05-13T08:04:48.507Z,23.70
2023-05-13T08:07:15.391Z,25.77
2023-05-13T08:09:42.195Z,23.35
2023-05-13T08:12:09.079Z,23.13
2023-05-13T08:14:36.548Z,23.42
2023-05-13T08:17:07.322Z,23.83
2023-05-13T08:19:34.218Z,25.08
2023-05-13T08:22:01.139Z,25.60
2023-05-13T08:24:27.978Z,26.83
2023-05-13T08:26:54.857Z,28.15
2023-05-13T08:29:21.663Z,24.20
2023-05-13T08:31:48.431Z,24.48
2023-05-13T08:34:15.227Z,24.20
2023-05-13T08:36:42.133Z,24.50
2023-05-13T08:39:08.864Z,23.48
2023-05-13T08:41:36.119Z,24.75
2023-05-13T08:44:05.610Z,23.48
2023-05-13T08:46:34.925Z,22.40
2023-05-13T08:49:01.812Z,23.30
2023-05-13T08:51:28.601Z,21.23
2023-05-13T08:53:55.487Z,24.13
2023-05-13T08:56:28.350Z,25.02
2023-05-13T08:58:55.217Z,21.97
2023-05-13T09:01:24.175Z,23.83
2023-05-13T09:04:06.398Z,22.40
2023-05-13T09:06:33.775Z,27.58
2023-05-13T09:09:00.861Z,23.10
2023-05-13T09:11:28.929Z,22.27
2023-05-13T09:14:00.416Z,24.27
2023-05-13T09:16:29.360Z,22.05
2023-05-13T09:19:05.590Z,19.45
2023-05-13T09:21:37.988Z,21.30
2023-05-13T09:24:18.566Z,20.30
2023-05-13T09:26:46.465Z,23.13
2023-05-13T09:29:24.377Z,22.25
2023-05-13T09:32:00.242Z,22.30
2023-05-13T09:34:30.825Z,24.13
2023-05-13T09:37:04.297Z,21.33
2023-05-13T09:39:34.200Z,24.48
2023-05-13T09:42:04.513Z,21.50
2023-05-13T09:44:33.203Z,25.77
2023-05-13T09:47:02.450Z,23.13
2023-05-13T09:49:29.493Z,20.50
2023-05-13T09:51:56.274Z,20.60
2023-05-13T09:54:23.241Z,23.17
2023-05-13T09:56:50.288Z,24.23
2023-05-13T09:59:17.104Z,24.02
2023-05-13T10:01:45.820Z,23.92
2023-05-13T10:04:12.857Z,22.00
2023-05-13T10:06:39.869Z,22.85
2023-05-13T10:09:07.103Z,20.23
2023-05-13T10:11:35.996Z,20.88
2023-05-13T10:14:06.230Z,21.60
2023-05-13T10:16:33.433Z,21.13
2023-05-13T10:19:01.084Z,24.83
2023-05-13T10:21:28.598Z,21.33
2023-05-13T10:23:56.603Z,22.63
2023-05-13T10:26:24.190Z,24.08
2023-05-13T10:28:51.121Z,21.20
2023-05-13T10:31:18.385Z,22.85
2023-05-13T10:33:45.986Z,22.45
2023-05-13T10:36:32.623Z,26.38
2023-05-13T10:39:20.447Z,22.88
2023-05-13T10:42:27.614Z,20.48
2023-05-13T10:44:55.584Z,19.30
2023-05-13T10:47:22.794Z,20.52
2023-05-13T10:49:53.561Z,19.33
2023-05-13T10:52:20.570Z,21.55
2023-05-13T10:55:03.210Z,20.38
2023-05-13T10:57:37.806Z,19.60
2023-05-13T11:00:16.321Z,19.88
2023-05-13T11:02:43.774Z,18.02
2023-05-13T11:05:20.671Z,21.67
2023-05-13T11:07:57.657Z,24.02
2023-05-13T11:10:30.572Z,22.23
2023-05-13T11:13:16.099Z,19.00
2023-05-13T11:15:48.373Z,20.25
2023-05-13T11:18:15.422Z,21.50
2023-05-13T11:20:53.602Z,18.55
2023-05-13T11:23:21.586Z,20.23
2023-05-13T11:26:17.106Z,20.30
2023-05-13T11:28:58.524Z,19.73
2023-05-13T11:31:28.395Z,22.80
2023-05-13T11:34:15.845Z,25.05
2023-05-13T11:36:48.155Z,19.95
2023-05-13T11:39:20.638Z,23.97
2023-05-13T11:41:50.475Z,25.83
2023-05-13T11:44:20.328Z,21.55
2023-05-13T11:47:00.352Z,21.65
2023-05-13T11:49:39.642Z,23.13
2023-05-13T11:52:13.112Z,19.67
2023-05-13T11:54:54.016Z,18.17
2023-05-13T11:57:28.717Z,21.15
2023-05-13T12:00:10.187Z,18.42
2023-05-13T12:02:40.886Z,22.42
2023-05-13T12:05:11.177Z,18.95
2023-05-13T12:07:39.695Z,22.38
2023-05-13T12:10:07.851Z,22.95
2023-05-13T12:12:38.620Z,20.60
2023-05-13T12:15:10.268Z,21.00
2023-05-13T12:17:37.513Z,23.25
2023-05-13T12:20:14.331Z,21.05
2023-05-13T12:22:44.574Z,21.98
2023-05-13T12:25:36.387Z,17.05
2023-05-13T12:28:20.281Z,21.30
2023-05-13T12:30:55.933Z,21.33
2023-05-13T12:33:26.017Z,23.85
2023-05-13T12:36:26.186Z,19.88
2023-05-13T12:39:02.187Z,19.60
2023-05-13T12:41:32.049Z,21.20
2023-05-13T12:44:10.701Z,20.13
2023-05-13T12:46:38.064Z,21.88
2023-05-13T12:49:06.115Z,22.73
2023-05-13T12:51:34.071Z,18.40
2023-05-13T12:54:01.056Z,22.88
2023-05-13T12:56:27.900Z,19.20
2023-05-13T12:58:54.796Z,21.48
2023-05-13T13:01:22.304Z,17.23
2023-05-13T13:03:49.714Z,21.60
2023-05-13T13:06:17.510Z,22.08
2023-05-13T13:08:44.339Z,20.83
2023-05-13T13:11:14.881Z,21.65
2023-05-13T13:13:41.965Z,19.20
2023-05-13T13:16:09.415Z,18.75
2023-05-13T13:18:36.503Z,18.92
2023-05-13T13:21:07.246Z,22.20
2023-05-13T13:23:34.791Z,22.00
2023-05-13T13:26:01.659Z,17.83
2023-05-13T13:28:28.746Z,21.00
2023-05-13T13:30:55.597Z,21.15
2023-05-13T13:33:22.879Z,21.35
2023-05-13T13:35:49.887Z,17.80
2023-05-13T13:38:16.680Z,19.77
2023-05-13T13:40:43.470Z,23.33
2023-05-13T13:43:10.389Z,22.08
2023-05-13T13:45:37.208Z,19.85
2023-05-13T13:48:04.557Z,21.92
2023-05-13T13:50:31.419Z,20.92
2023-05-13T13:52:58.243Z,21.40
2023-05-13T13:55:25.069Z,23.80
2023-05-13T13:57:52.197Z,23.27
2023-05-13T14:00:19.533Z,19.83
2023-05-13T14:02:46.479Z,21.30
2023-05-13T14:05:13.831Z,23.27
2023-05-13T14:07:41.133Z,22.38
2023-05-13T14:10:09.064Z,22.70
2023-05-13T14:12:36.451Z,23.08
2023-05-13T14:15:03.937Z,21.30
2023-05-13T14:17:30.928Z,22.70
2023-05-13T14:19:57.761Z,22.20
2023-05-13T14:22:24.884Z,24.35
2023-05-13T14:24:52.588Z,20.92
2023-05-13T14:27:20.732Z,24.15
2023-05-13T14:29:47.990Z,22.65
2023-05-13T14:32:14.987Z,23.20
2023-05-13T14:34:42.309Z,21.40
2023-05-13T14:37:09.368Z,22.13
2023-05-13T14:39:36.177Z,23.40
2023-05-13T14:42:03.726Z,22.70
2023-05-13T14:44:30.593Z,24.48
2023-05-13T14:46:57.629Z,19.88
2023-05-13T14:49:25.132Z,21.83
2023-05-13T14:51:51.942Z,22.05
2023-05-13T14:54:18.778Z,25.10
2023-05-13T14:56:45.630Z,21.35
2023-05-13T14:59:12.433Z,23.45
2023-05-13T15:01:39.306Z,24.55
2023-05-13T15:04:06.326Z,21.95
2023-05-13T15:06:33.939Z,21.40
2023-05-13T15:09:00.950Z,22.52
2023-05-13T15:11:28.369Z,21.23
2023-05-13T15:13:55.723Z,23.63
2023-05-13T15:16:22.847Z,24.15
2023-05-13T15:18:50.379Z,24.65
2023-05-13T15:21:17.866Z,21.70
2023-05-13T15:23:44.928Z,23.73
2023-05-13T15:26:11.914Z,24.27
2023-05-13T15:28:38.901Z,26.42
2023-05-13T15:31:06.283Z,22.35
2023-05-13T15:33:33.646Z,23.45
2023-05-13T15:36:01.427Z,22.67
2023-05-13T15:38:28.468Z,22.52
2023-05-13T15:40:55.197Z,21.50
2023-05-13T15:43:21.977Z,26.88
2023-05-13T15:45:50.111Z,20.67
2023-05-13T15:48:17.656Z,20.88
2023-05-13T15:50:44.782Z,21.95
2023-05-13T15:53:11.722Z,20.88
2023-05-13T15:55:39.502Z,23.40
2023-05-13T15:58:07.199Z,22.95
2023-05-13T16:00:34.223Z,25.02
2023-05-13T16:03:01.572Z,24.60
2023-05-13T16:05:28.708Z,23.05
2023-05-13T16:07:57.148Z,22.52
2023-05-13T16:10:24.317Z,22.73
2023-05-13T16:12:51.542Z,20.10
2023-05-13T16:15:18.474Z,24.98
2023-05-13T16:17:45.478Z,21.08
2023-05-13T16:20:13.342Z,22.95
2023-05-13T16:22:40.581Z,23.02
2023-05-13T16:25:10.361Z,28.30
2023-05-13T16:27:38.847Z,28.30
2023-05-13T16:30:07.753Z,28.50
2023-05-13T16:32:35.203Z,29.77
2023-05-13T16:35:03.174Z,25.67
2023-05-13T16:37:31.224Z,24.80
2023-05-13T16:39:58.152Z,28.83
2023-05-13T16:42:25.883Z,27.40
2023-05-13T16:44:52.880Z,26.83
2023-05-13T16:47:19.648Z,26.48
2023-05-13T16:49:48.442Z,20.45
2023-05-13T16:52:15.542Z,27.38
2023-05-13T16:54:42.368Z,28.20
2023-05-13T16:57:09.214Z,31.50
2023-05-13T16:59:36.121Z,28.95
2023-05-13T17:02:02.937Z,26.80
2023-05-13T17:04:29.828Z,27.42
2023-05-13T17:06:58.937Z,26.50
2023-05-13T17:09:26.229Z,29.45
2023-05-13T17:11:54.617Z,26.55
2023-05-13T17:14:21.929Z,24.45
2023-05-13T17:16:49.105Z,28.15
2023-05-13T17:19:16.113Z,28.42
2023-05-13T17:21:43.165Z,28.40
2023-05-13T17:24:09.939Z,29.23
2023-05-13T17:26:38.661Z,28.13
2023-05-13T17:29:06.032Z,26.33
2023-05-13T17:31:33.117Z,27.00
2023-05-13T17:33:59.965Z,28.38
2023-05-13T17:36:26.821Z,28.67
2023-05-13T17:38:53.708Z,27.85
2023-05-13T17:41:20.586Z,28.83
2023-05-13T17:43:47.614Z,28.17
2023-05-13T17:46:14.474Z,28.35
2023-05-13T17:48:41.394Z,24.35
2023-05-13T17:51:08.234Z,26.88
2023-05-13T17:53:35.328Z,23.33
2023-05-13T17:56:02.098Z,26.35
2023-05-13T17:58:28.849Z,25.33
2023-05-13T18:00:55.744Z,27.90
2023-05-13T18:03:22.583Z,25.73
2023-05-13T18:05:49.469Z,28.90
2023-05-13T18:08:16.336Z,24.05
2023-05-13T18:10:43.217Z,24.25
2023-05-13T18:13:10.743Z,23.45
2023-05-13T18:15:37.685Z,24.85
2023-05-13T18:18:04.716Z,24.98
2023-05-13T18:20:34.780Z,26.95
2023-05-13T18:23:01.598Z,24.65
2023-05-13T18:25:28.400Z,25.85
2023-05-13T18:27:55.082Z,26.38
2023-05-13T18:30:22.099Z,27.27
2023-05-13T18:32:49.227Z,26.95
2023-05-13T18:35:16.304Z,25.25
2023-05-13T18:37:43.284Z,23.77
2023-05-13T18:40:10.489Z,27.30
2023-05-13T18:42:37.372Z,25.98
2023-05-13T18:45:05.056Z,27.52
2023-05-13T18:47:31.880Z,20.77
2023-05-13T18:49:58.714Z,26.20
2023-05-13T18:52:26.284Z,24.17
2023-05-13T18:54:53.109Z,23.10
2023-05-13T18:57:20.870Z,24.33
2023-05-13T18:59:47.962Z,24.98
2023-05-13T19:02:15.032Z,25.50
2023-05-13T19:04:42.051Z,24.95
2023-05-13T19:07:11.677Z,25.10
2023-05-13T19:09:38.364Z,24.90
2023-05-13T19:12:05.480Z,24.13
2023-05-13T19:14:32.223Z,24.27
2023-05-13T19:16:59.048Z,26.27
2023-05-13T19:19:25.957Z,23.48
2023-05-13T19:21:55.615Z,25.10
2023-05-13T19:24:22.510Z,24.85
2023-05-13T19:26:49.374Z,26.15
2023-05-13T19:29:16.167Z,21.75
2023-05-13T19:31:43.131Z,25.52
2023-05-13T19:34:09.864Z,26.13
2023-05-13T19:36:36.741Z,26.77
2023-05-13T19:39:03.580Z,26.60
2023-05-13T19:41:30.459Z,26.40
2023-05-13T19:43:57.302Z,26.95
2023-05-13T19:46:24.040Z,28.58
2023-05-13T19:48:50.976Z,25.85
2023-05-13T19:51:18.139Z,26.10
2023-05-13T19:53:44.996Z,23.40
2023-05-13T19:56:11.912Z,25.20
2023-05-13T19:58:38.724Z,26.35
2023-05-13T20:01:05.523Z,26.98
2023-05-13T20:03:32.633Z,28.27
2023-05-13T20:05:59.412Z,27.52
2023-05-13T20:08:26.216Z,23.90
2023-05-13T20:10:53.011Z,27.15
2023-05-13T20:13:19.754Z,27.23
2023-05-13T20:15:46.580Z,26.63
2023-05-13T20:18:13.379Z,23.73
2023-05-13T20:20:41.663Z,27.05
2023-05-13T20:23:08.747Z,25.88
2023-05-13T20:25:35.787Z,25.02
2023-05-13T20:28:02.672Z,27.63
2023-05-13T20:30:29.597Z,27.58
2023-05-13T20:32:56.418Z,25.52
2023-05-13T20:35:23.382Z,32.55
2023-05-13T20:37:50.211Z,26.73
2023-05-13T20:40:17.025Z,30.85
2023-05-13T20:42:43.850Z,27.88
2023-05-13T20:45:11.167Z,29.73
2023-05-13T20:47:37.922Z,26.23
2023-05-13T20:50:05.233Z,28.98
2023-05-13T20:52:32.073Z,27.08
2023-05-13T20:54:59.307Z,26.92
2023-05-13T20:57:26.233Z,27.17
2023-05-13T20:59:53.215Z,28.92
2023-05-13T21:02:20.116Z,30.10
2023-05-13T21:04:46.929Z,29.05
2023-05-13T21:07:13.823Z,28.40
2023-05-13T21:09:41.544Z,29.25
2023-05-13T21:12:08.428Z,27.58
2023-05-13T21:14:35.211Z,29.40
2023-05-13T21:17:03.509Z,27.40
2023-05-13T21:19:30.748Z,28.65
2023-05-13T21:21:58.511Z,30.63
2023-05-13T21:24:25.545Z,28.80
2023-05-13T21:26:52.410Z,29.55
2023-05-13T21:29:19.353Z,28.40
2023-05-13T21:31:47.772Z,27.90
2023-05-13T21:34:14.566Z,28.00
2023-05-13T21:36:41.372Z,27.20
2023-05-13T21:39:10.240Z,31.98
2023-05-13T21:41:37.568Z,30.23
2023-05-13T21:44:04.700Z,29.50
2023-05-13T21:46:31.489Z,27.20
2023-05-13T21:49:01.734Z,27.25
2023-05-13T21:51:29.025Z,28.23
2023-05-13T21:53:55.825Z,27.40
2023-05-13T21:56:22.828Z,28.42
2023-05-13T21:58:49.938Z,27.73
2023-05-13T22:01:16.923Z,26.55
2023-05-13T22:03:43.828Z,29.08
2023-05-13T22:06:10.622Z,26.52
2023-05-13T22:08:37.391Z,29.55
2023-05-13T22:11:04.298Z,25.98
2023-05-13T22:13:31.050Z,31.58
2023-05-13T22:15:57.919Z,30.50
2023-05-13T22:18:24.934Z,31.98
2023-05-13T22:20:52.017Z,28.58
2023-05-13T22:23:18.737Z,32.63
2023-05-13T22:25:45.556Z,29.95
2023-05-13T22:28:12.357Z,34.00
2023-05-13T22:30:39.143Z,29.23
2023-05-13T22:33:06.110Z,33.97
2023-05-13T22:35:36.238Z,33.90
2023-05-13T22:38:04.166Z,29.92
2023-05-13T22:40:30.990Z,31.70
2023-05-13T22:42:57.861Z,31.85
2023-05-13T22:45:24.970Z,32.67
2023-05-13T22:47:51.756Z,31.65
2023-05-13T22:50:18.717Z,31.85
2023-05-13T22:52:45.586Z,33.10
2023-05-13T22:55:12.319Z,32.10
2023-05-13T22:57:39.112Z,29.80
2023-05-13T23:00:07.219Z,30.33
2023-05-13T23:02:34.016Z,33.70
2023-05-13T23:05:00.778Z,31.77
2023-05-13T23:07:27.528Z,30.00
2023-05-13T23:09:54.321Z,31.95
2023-05-13T23:12:22.284Z,35.65
2023-05-13T23:14:49.124Z,31.55
2023-05-13T23:17:15.960Z,35.00
2023-05-13T23:19:42.774Z,31.60
2023-05-13T23:22:09.551Z,33.10
2023-05-13T23:24:36.317Z,32.53
2023-05-13T23:27:03.807Z,35.58
2023-05-13T23:29:30.860Z,31.58
2023-05-13T23:31:57.623Z,35.40
2023-05-13T23:34:24.448Z,34.28
2023-05-13T23:36:51.266Z,30.17
2023-05-13T23:39:17.993Z,33.22
2023-05-13T23:41:44.944Z,33.28
2023-05-13T23:44:11.932Z,33.17
2023-05-13T23:46:38.846Z,33.85
2023-05-13T23:49:05.606Z,31.50
2023-05-13T23:51:32.405Z,33.50
2023-05-13T23:53:59.824Z,32.47
2023-05-13T23:56:26.667Z,34.42
2023-05-13T23:58:53.384Z,34.53
